Latest Weather Observations for Derby

IDW60801

Issued at 11:34 pm WST Saturday 1 October 2016 (issued every 30 minutes, with the page automatically refreshed every 10 minutes)

About weather observations | Map of weather stations | Latest weather observations for WA | Other Formats
Station Details ID: 003032 Name: DERBY AERO Lat: -17.37 Lon: 123.66 Height: 6.2 m
Data from the previous 72 hours. | See also: Recent months at Derby
Date/Time
WST
Temp
°C
App
Temp
°C
Dew
Point
°C
Rel
Hum
%
Delta-T
°C
Wind Press
QNH
hPa
Press
MSL
hPa
Rain since
9am
mm
Dir  Spd
km/h
Gust
km/h
Spd
kts
Gust
kts
01/11:30pm 25.6 27.2 17.0 59 5.3 SW 4 6 2 3 1010.6 1010.6 -
01/11:00pm 25.7 28.1 17.1 59 5.4 CALM 0 0 0 0 1010.6 1010.6 -
01/10:30pm 25.8 27.1 17.2 59 5.4 ENE 6 9 3 5 1010.6 1010.6 -
01/10:00pm 25.9 27.3 17.3 59 5.4 ESE 6 9 3 5 1010.8 1010.8 -
01/09:30pm 26.0 26.7 17.1 58 5.5 SE 9 11 5 6 1010.7 1010.7 -
01/09:00pm 26.1 26.5 17.2 58 5.6 SE 11 13 6 7 1010.5 1010.5 0.0
01/08:30pm 26.2 26.2 17.3 58 5.6 SE 13 15 7 8 1010.4 1010.4 -
01/08:00pm 26.4 26.3 16.9 56 5.9 SSE 13 15 7 8 1010.2 1010.2 -
01/07:30pm 26.7 26.7 17.2 56 5.9 SSE 13 17 7 9 1010.0 1010.0 -
01/07:00pm 27.0 26.0 16.6 53 6.5 S 17 20 9 11 1009.9 1009.9 -
01/06:30pm 27.3 26.8 16.9 53 6.5 SSE 15 19 8 10 1009.4 1009.4 -
01/06:00pm 27.6 25.7 16.6 51 6.8 S 22 26 12 14 1009.2 1009.2 -
01/05:30pm 28.4 26.1 15.7 46 7.8 S 22 28 12 15 1008.7 1008.7 -
01/05:00pm 29.1 26.8 15.6 44 8.3 S 22 28 12 15 1008.4 1008.4 -
01/04:30pm 30.2 27.7 15.1 40 9.3 S 22 28 12 15 1007.8 1007.8 -
01/04:00pm 31.7 30.2 13.0 32 11.2 SSW 13 32 7 17 1007.5 1007.5 -
01/03:30pm 33.1 32.0 9.8 24 13.3 SW 6 11 3 6 1007.6 1007.6 -
01/03:00pm 32.8 30.4 10.2 25 13.0 WSW 13 17 7 9 1007.7 1007.7 -
01/02:30pm 32.9 30.9 11.4 27 12.6 WSW 13 20 7 11 1007.9 1007.9 -
01/02:00pm 33.7 32.7 10.3 24 13.5 SSE 6 9 3 5 1008.2 1008.2 -
01/01:30pm 32.8 31.6 9.6 24 13.2 NNE 6 9 3 5 1008.6 1008.6 -
01/01:00pm 32.6 31.1 10.6 26 12.7 SSE 9 13 5 7 1008.9 1008.9 -
01/12:30pm 32.3 30.9 10.9 27 12.4 SSE 9 15 5 8 1009.3 1009.3 -
01/12:00pm 31.5 - 10.8 28 11.9 - - - - - 1009.7 1009.7 -
01/11:30am 30.9 28.7 10.8 29 11.6 S 13 19 7 10 1010.2 1010.2 0.0
01/11:00am 31.2 28.9 11.6 30 11.4 SSW 15 24 8 13 1010.7 1010.7 0.0
01/10:30am 30.7 28.1 12.1 32 10.9 SSW 17 22 9 12 1011.0 1011.0 0.0
01/10:00am 30.2 27.1 11.7 32 10.8 SSW 19 26 10 14 1011.4 1011.4 0.0
01/09:30am 30.7 28.0 13.0 33 10.5 SSW 19 24 10 13 1011.5 1011.5 0.0
01/09:00am 28.7 26.5 12.2 36 9.6 S 15 20 8 11 1011.5 1011.5 0.0
01/08:30am 27.8 25.1 11.8 37 9.2 S 17 22 9 12 1011.3 1011.3 0.0
01/08:00am 27.7 24.3 11.3 36 9.4 S 20 26 11 14 1011.1 1011.1 0.0
01/07:30am 27.3 24.4 10.9 36 9.3 SSE 17 20 9 11 1010.7 1010.7 0.0
01/07:00am 26.7 24.2 11.2 38 8.8 SSE 15 19 8 10 1010.3 1010.3 0.0
01/06:30am 26.4 24.1 10.5 37 8.9 SSE 13 17 7 9 1010.0 1010.0 0.0
01/06:00am 26.1 23.8 10.3 37 8.8 S 13 15 7 8 1009.8 1009.8 0.0
01/05:30am 26.1 24.6 10.7 38 8.6 S 9 13 5 7 1009.6 1009.6 0.0
01/05:00am 26.1 23.7 9.9 36 9.0 S 13 17 7 9 1009.1 1009.1 0.0
01/04:30am 25.9 23.7 9.3 35 9.1 SSW 11 15 6 8 1008.6 1008.6 0.0
01/04:00am 25.4 23.2 9.3 36 8.8 SSW 11 13 6 7 1008.1 1008.1 0.0
01/03:30am 25.8 23.6 7.9 32 9.6 S 9 11 5 6 1008.0 1008.0 0.0
01/03:00am 26.6 24.3 7.6 30 10.2 S 9 11 5 6 1007.7 1007.7 0.0
01/02:30am 26.7 24.1 7.7 30 10.2 S 11 13 6 7 1007.7 1007.7 0.0
01/02:00am 27.3 24.6 7.2 28 10.7 SSE 11 13 6 7 1007.8 1007.8 0.0
01/01:30am 27.4 24.7 7.3 28 10.7 S 11 15 6 8 1008.0 1008.0 0.0
01/01:00am 27.5 25.1 6.8 27 11.0 S 9 11 5 6 1008.3 1008.3 0.0
01/12:30am 28.0 25.4 6.2 25 11.4 S 9 13 5 7 1008.6 1008.6 0.0
01/12:00am 28.4 24.7 4.6 22 12.2 S 13 17 7 9 1008.8 1008.8 0.0
 
Date/Time
WST
Temp
°C
App
Temp
°C
Dew
Point
°C
Rel
Hum
%
Delta-T
°C
Wind Press
QNH
hPa
Press
MSL
hPa
Rain since
9am
mm
Dir  Spd
km/h
Gust
km/h
Spd
kts
Gust
kts
30/11:30pm 28.5 25.2 4.7 22 12.2 SSW 11 15 6 8 1008.8 1008.8 0.0
30/11:00pm 28.9 24.4 4.4 21 12.6 SSW 17 19 9 10 1008.9 1008.9 0.0
30/10:30pm 28.9 23.9 4.4 21 12.5 SW 20 24 11 13 1008.8 1008.8 0.0
30/10:00pm 30.2 26.8 9.1 27 11.8 W 17 20 9 11 1008.6 1008.6 0.0
30/09:30pm 30.6 27.6 10.5 29 11.5 WNW 17 20 9 11 1008.4 1008.4 0.0
30/09:00pm 30.9 28.7 13.2 34 10.6 WNW 17 20 9 11 1008.3 1008.3 0.0
30/08:30pm 30.2 30.4 19.3 52 7.1 NW 17 20 9 11 1008.0 1008.0 0.0
30/08:00pm 30.3 29.9 19.3 51 7.2 NW 20 24 11 13 1007.8 1007.8 0.0
30/07:30pm 30.3 28.9 19.6 52 7.0 NW 26 32 14 17 1007.3 1007.3 0.0
30/07:00pm 30.8 28.1 17.5 45 8.5 NW 28 32 15 17 1006.7 1006.7 0.0
30/06:30pm 31.0 27.7 15.0 38 9.8 NNW 26 33 14 18 1006.2 1006.2 0.0
30/06:00pm 31.4 27.5 12.2 30 11.3 NNW 24 35 13 19 1005.8 1005.8 0.0
30/05:30pm 32.3 28.1 12.5 30 11.8 NNW 26 30 14 16 1005.6 1005.6 0.0
30/05:00pm 33.3 28.8 10.0 24 13.4 NW 24 26 13 14 1005.1 1005.1 0.0
30/04:30pm 34.5 30.3 8.3 20 14.7 NW 20 24 11 13 1005.0 1005.0 0.0
30/04:00pm 35.7 30.6 4.1 14 16.8 WNW 20 26 11 14 1004.8 1004.8 0.0
30/03:30pm 37.0 31.3 2.9 12 17.8 WNW 22 26 12 14 1004.5 1004.5 0.0
30/03:00pm 36.6 31.4 3.7 13 17.4 NW 20 24 11 13 1004.6 1004.6 0.0
30/02:30pm 37.3 32.4 4.3 13 17.7 NW 19 24 10 13 1004.7 1004.7 0.0
30/02:00pm 36.8 31.7 2.8 12 17.8 WNW 19 22 10 12 1005.1 1005.1 0.0
30/01:30pm 36.9 31.8 2.8 12 17.8 WNW 19 24 10 13 1005.4 1005.4 0.0
30/01:00pm 36.8 31.9 3.9 13 17.5 WNW 19 24 10 13 1005.5 1005.5 0.0
30/12:30pm 38.0 33.6 4.8 13 18.0 NW 17 24 9 13 1006.2 1006.2 0.0
30/12:00pm 37.4 32.3 0.7 10 18.6 NW 17 24 9 13 1006.7 1006.7 0.0
30/11:30am 38.1 33.4 1.2 10 18.9 NW 15 22 8 12 1007.4 1007.4 0.0
30/11:00am 37.5 33.3 -0.7 9 19.0 WSW 11 13 6 7 1007.9 1007.9 0.0
30/10:30am 36.7 32.8 -1.3 9 18.6 ESE 9 17 5 9 1008.5 1008.5 0.0
30/10:00am 35.7 31.5 -3.6 8 18.4 SSE 9 15 5 8 1008.9 1008.9 0.0
30/09:30am 34.7 30.1 -4.4 8 17.9 SE 11 17 6 9 1009.2 1009.2 0.0
30/09:00am 33.4 28.3 -5.3 8 17.3 SSE 13 19 7 10 1009.6 1009.6 0.0
30/08:30am 32.5 27.3 -6.0 8 16.9 SE 13 17 7 9 1009.7 1009.7 0.0
30/08:00am 31.2 26.5 -5.4 9 16.1 SE 11 15 6 8 1009.7 1009.7 0.0
30/07:30am 28.9 23.6 -7.1 9 15.0 SE 13 17 7 9 1009.4 1009.4 0.0
30/07:00am 27.9 22.5 -7.9 9 14.6 SE 13 19 7 10 1009.3 1009.3 0.0
30/06:30am 26.7 22.1 -4.0 13 13.3 S 11 13 6 7 1009.1 1009.1 0.0
30/06:00am 25.5 21.1 -6.0 12 13.0 S 9 13 5 7 1009.1 1009.1 0.0
30/05:30am 26.6 21.7 -7.5 10 13.8 SE 11 17 6 9 1008.7 1008.7 0.0
30/05:00am 25.6 20.9 -4.8 13 12.9 SSW 11 13 6 7 1008.9 1008.9 0.0
30/04:30am 27.5 22.6 -6.8 10 14.2 SE 11 13 6 7 1008.4 1008.4 0.0
30/04:00am 27.5 23.5 -5.6 11 14.1 ESE 7 11 4 6 1008.1 1008.1 0.0
30/03:30am 27.4 23.1 -4.5 12 13.8 SE 9 13 5 7 1007.9 1007.9 0.0
30/03:00am 27.7 23.1 -4.3 12 13.9 SSE 11 13 6 7 1007.8 1007.8 0.0
30/02:30am 27.9 22.5 -4.1 12 14.0 SSE 15 20 8 11 1007.8 1007.8 0.0
30/02:00am 28.0 23.0 -4.0 12 14.0 SE 13 19 7 10 1007.8 1007.8 0.0
30/01:30am 28.3 23.4 -3.8 12 14.1 SSE 13 15 7 8 1008.1 1008.1 0.0
30/01:00am 28.5 23.6 -3.6 12 14.2 SE 13 19 7 10 1008.0 1008.0 0.0
30/12:30am 29.0 23.4 -3.2 12 14.4 SE 17 20 9 11 1008.3 1008.3 0.0
30/12:00am 28.8 23.8 -1.3 14 13.9 SE 15 17 8 9 1008.5 1008.5 0.0
 
Date/Time
WST
Temp
°C
App
Temp
°C
Dew
Point
°C
Rel
Hum
%
Delta-T
°C
Wind Press
QNH
hPa
Press
MSL
hPa
Rain since
9am
mm
Dir  Spd
km/h
Gust
km/h
Spd
kts
Gust
kts
29/11:30pm 27.4 23.4 0.2 17 12.8 SSE 11 13 6 7 1008.7 1008.7 0.0
29/11:00pm 26.5 22.5 0.3 18 12.3 S 11 15 6 8 1009.0 1009.0 0.0
29/10:30pm 29.2 24.7 -0.1 15 13.9 SE 13 17 7 9 1009.0 1009.0 0.0
29/10:00pm 29.5 25.2 1.1 16 13.8 SE 13 17 7 9 1009.0 1009.0 0.0
29/09:30pm 29.6 24.9 1.1 16 13.8 SE 15 19 8 10 1009.0 1009.0 0.0
29/09:00pm 29.3 25.2 2.5 18 13.3 SE 13 13 7 7 1009.1 1009.1 0.0
29/08:30pm 29.1 25.4 2.4 18 13.2 SE 11 13 6 7 1009.1 1009.1 0.0
29/08:00pm 29.9 25.8 2.2 17 13.7 SSE 13 15 7 8 1008.9 1008.9 0.0
29/07:30pm 30.5 26.7 1.9 16 14.2 SSE 11 15 6 8 1008.6 1008.6 0.0
29/07:00pm 31.3 27.2 2.5 16 14.5 SSE 13 17 7 9 1008.1 1008.1 0.0
29/06:30pm 32.0 28.0 3.1 16 14.7 S 13 17 7 9 1007.8 1007.8 0.0
29/06:00pm 34.2 29.5 2.9 14 16.2 SSE 17 22 9 12 1007.5 1007.5 0.0
29/05:30pm 35.4 30.6 2.8 13 16.9 SSE 17 22 9 12 1007.1 1007.1 0.0
29/05:00pm 36.2 31.9 3.4 13 17.3 S 15 20 8 11 1006.8 1006.8 0.0
29/04:30pm 36.7 32.1 3.8 13 17.4 S 17 20 9 11 1006.6 1006.6 0.0
29/04:00pm 37.2 33.1 4.2 13 17.7 SSE 15 20 8 11 1006.5 1006.5 0.0
29/03:30pm 37.3 33.2 4.3 13 17.7 SSE 15 22 8 12 1006.5 1006.5 0.0
29/03:00pm 37.0 32.1 4.0 13 17.6 SSE 19 26 10 14 1006.6 1006.6 0.0
29/02:30pm 36.8 32.0 2.8 12 17.7 SSE 17 22 9 12 1006.7 1006.7 0.0
29/02:00pm 37.1 32.2 1.8 11 18.2 SE 17 28 9 15 1007.0 1007.0 0.0
29/01:30pm 36.8 32.4 2.8 12 17.7 SE 15 24 8 13 1007.6 1007.6 0.0
29/01:00pm 36.7 31.7 1.5 11 18.0 ESE 17 24 9 13 1008.0 1008.0 0.0
29/12:30pm 36.1 30.7 1.0 11 17.7 SE 19 30 10 16 1008.5 1008.5 0.0
29/12:00pm 36.7 31.9 0.1 10 18.3 ESE 15 30 8 16 1009.0 1009.0 0.0
29/11:30am 34.7 28.9 -0.1 11 17.1 SE 20 28 11 15 1009.9 1009.9 0.0
29/11:00am 34.2 27.2 -0.4 11 16.9 SE 26 35 14 19 1010.4 1010.4 0.0
29/10:30am 33.3 26.4 0.1 12 16.2 SE 26 33 14 18 1011.0 1011.0 0.0
29/10:00am 32.5 25.7 0.6 13 15.7 SE 26 33 14 18 1011.6 1011.6 0.0
29/09:30am 31.5 25.4 2.7 16 14.5 SE 24 32 13 17 1011.8 1011.8 0.0
29/09:00am 31.3 24.9 3.4 17 14.2 SE 26 33 14 18 1012.0 1012.0 0.0
29/08:30am 31.0 24.9 4.7 19 13.7 SE 26 35 14 19 1012.0 1012.0 0.0
29/08:00am 30.7 25.8 8.4 25 12.3 SE 24 28 13 15 1011.8 1011.8 0.0
29/07:30am 27.8 25.6 13.3 40 8.6 SE 17 24 9 13 1011.6 1011.6 0.0
29/07:00am 27.0 25.8 15.1 48 7.2 SSE 15 20 8 11 1011.2 1011.2 0.0
29/06:30am 26.2 26.5 15.9 53 6.3 SSE 9 13 5 7 1010.8 1010.8 0.0
29/06:00am 25.8 25.8 15.2 52 6.4 SSE 9 13 5 7 1010.5 1010.5 0.0
29/05:30am 25.9 26.3 16.2 55 6.0 SSE 9 11 5 6 1010.2 1010.2 0.0
29/05:00am 26.0 26.6 15.7 53 6.3 ESE 7 7 4 4 1009.8 1009.8 0.0
29/04:30am 26.3 26.9 15.7 52 6.5 SSE 7 9 4 5 1009.8 1009.8 0.0
29/04:00am 26.5 27.5 16.4 53 6.2 SSE 6 7 3 4 1009.3 1009.3 0.0
29/03:30am 26.6 27.5 16.5 54 6.2 SSE 7 9 4 5 1009.2 1009.2 0.0
29/03:00am 26.7 27.6 16.0 52 6.6 S 6 7 3 4 1009.2 1009.2 0.0
29/02:30am 26.8 27.7 16.1 52 6.6 S 6 7 3 4 1009.3 1009.3 0.0
29/02:00am 26.9 27.8 16.5 53 6.4 S 7 9 4 5 1009.3 1009.3 0.0
29/01:30am 26.8 27.4 15.8 51 6.7 S 7 9 4 5 1009.7 1009.7 0.0
29/01:00am 27.1 27.3 15.8 50 6.9 S 9 9 5 5 1010.0 1010.0 0.0
29/12:30am 27.4 27.7 16.1 50 7.0 S 9 11 5 6 1010.3 1010.3 0.0
29/12:00am 27.7 28.3 15.7 48 7.4 S 7 9 4 5 1010.6 1010.6 0.0

Other Formats:

Comma delimited format used in spreadsheet applications
http://www.bom.gov.au/fwo/IDW60801/IDW60801.95205.axf

JavaScript Object Notation format (JSON) in row-major order
http://www.bom.gov.au/fwo/IDW60801/IDW60801.95205.json